sensor_id;sensor_type;location;lat;lon;timestamp;pressure;altitude;pressure_sealevel;temperature;humidity
31775;BME280;66189;49.000;11.640;2023-05-03T00:01:29;96686.81;;;7.81;78.89
31775;BME280;66189;49.000;11.640;2023-05-03T00:03:29;96689.94;;;7.83;78.87
31775;BME280;66189;49.000;11.640;2023-05-03T00:05:30;96694.00;;;7.89;78.58
31775;BME280;66189;49.000;11.640;2023-05-03T00:07:30;96691.50;;;7.93;78.60
31775;BME280;66189;49.000;11.640;2023-05-03T00:09:32;96685.31;;;7.92;78.50
31775;BME280;66189;49.000;11.640;2023-05-03T00:11:32;96688.81;;;7.93;79.07
31775;BME280;66189;49.000;11.640;2023-05-03T00:13:33;96694.50;;;7.91;78.81
31775;BME280;66189;49.000;11.640;2023-05-03T00:15:33;96688.50;;;7.94;78.65
31775;BME280;66189;49.000;11.640;2023-05-03T00:17:33;96691.50;;;7.93;78.29
31775;BME280;66189;49.000;11.640;2023-05-03T00:19:34;96696.53;;;7.94;78.32
31775;BME280;66189;49.000;11.640;2023-05-03T00:21:36;96693.69;;;7.91;78.39
31775;BME280;66189;49.000;11.640;2023-05-03T00:23:36;96695.59;;;7.90;78.27
31775;BME280;66189;49.000;11.640;2023-05-03T00:25:37;96693.69;;;7.91;78.27
31775;BME280;66189;49.000;11.640;2023-05-03T00:27:37;96694.00;;;7.89;77.95
31775;BME280;66189;49.000;11.640;2023-05-03T00:29:37;96692.91;;;7.90;77.90
31775;BME280;66189;49.000;11.640;2023-05-03T00:31:38;96694.66;;;7.86;77.84
31775;BME280;66189;49.000;11.640;2023-05-03T00:33:38;96697.50;;;7.90;77.51
31775;BME280;66189;49.000;11.640;2023-05-03T00:35:38;96692.03;;;7.69;78.67
31775;BME280;66189;49.000;11.640;2023-05-03T00:37:39;96688.13;;;7.57;79.12
31775;BME280;66189;49.000;11.640;2023-05-03T00:39:39;96681.34;;;7.60;79.22
31775;BME280;66189;49.000;11.640;2023-05-03T00:41:39;96685.28;;;7.62;79.27
31775;BME280;66189;49.000;11.640;2023-05-03T00:43:41;96684.03;;;7.51;79.46
31775;BME280;66189;49.000;11.640;2023-05-03T00:45:41;96684.03;;;7.51;79.35
31775;BME280;66189;49.000;11.640;2023-05-03T00:47:41;96676.34;;;7.41;79.22
31775;BME280;66189;49.000;11.640;2023-05-03T00:49:42;96675.75;;;7.35;79.64
31775;BME280;66189;49.000;11.640;2023-05-03T00:51:43;96678.44;;;7.35;79.98
31775;BME280;66189;49.000;11.640;2023-05-03T00:53:43;96679.84;;;7.33;79.48
31775;BME280;66189;49.000;11.640;2023-05-03T00:55:44;96681.44;;;7.34;79.54
31775;BME280;66189;49.000;11.640;2023-05-03T00:57:44;96677.31;;;7.36;79.33
31775;BME280;66189;49.000;11.640;2023-05-03T00:59:45;96676.34;;;7.41;79.41
31775;BME280;66189;49.000;11.640;2023-05-03T01:01:51;96678.41;;;7.44;79.50
31775;BME280;66189;49.000;11.640;2023-05-03T01:03:52;96673.34;;;7.42;79.48
31775;BME280;66189;49.000;11.640;2023-05-03T01:05:56;96673.69;;;7.41;79.44
31775;BME280;66189;49.000;11.640;2023-05-03T01:10:09;96674.94;;;7.35;79.62
31775;BME280;66189;49.000;11.640;2023-05-03T01:18:29;96665.56;;;7.11;80.99
31775;BME280;66189;49.000;11.640;2023-05-03T01:20:31;96663.06;;;6.97;81.25
31775;BME280;66189;49.000;11.640;2023-05-03T01:22:38;96660.53;;;7.01;81.28
31775;BME280;66189;49.000;11.640;2023-05-03T01:24:44;96665.41;;;6.99;81.13
31775;BME280;66189;49.000;11.640;2023-05-03T01:26:45;96657.53;;;7.02;80.95
31775;BME280;66189;49.000;11.640;2023-05-03T01:28:45;96668.56;;;7.01;80.54
31775;BME280;66189;49.000;11.640;2023-05-03T01:30:45;96666.81;;;6.96;80.91
31775;BME280;66189;49.000;11.640;2023-05-03T01:32:55;96660.53;;;6.92;80.71
31775;BME280;66189;49.000;11.640;2023-05-03T01:35:03;96659.28;;;6.89;81.18
31775;BME280;66189;49.000;11.640;2023-05-03T01:37:04;96667.44;;;6.84;81.78
31775;BME280;66189;49.000;11.640;2023-05-03T01:41:22;96666.84;;;6.70;81.65
31775;BME280;66189;49.000;11.640;2023-05-03T01:43:23;96669.97;;;6.72;81.25
31775;BME280;66189;49.000;11.640;2023-05-03T01:45:25;96661.19;;;6.71;81.18
31775;BME280;66189;49.000;11.640;2023-05-03T01:47:26;96669.34;;;6.75;80.88
31775;BME280;66189;49.000;11.640;2023-05-03T01:49:27;96655.97;;;6.75;81.25
31775;BME280;66189;49.000;11.640;2023-05-03T01:51:28;96659.41;;;6.75;81.57
31775;BME280;66189;49.000;11.640;2023-05-03T01:53:28;96652.22;;;6.76;82.15
31775;BME280;66189;49.000;11.640;2023-05-03T01:55:29;96658.50;;;6.63;81.58
31775;BME280;66189;49.000;11.640;2023-05-03T01:57:29;96659.75;;;6.74;81.68
31775;BME280;66189;49.000;11.640;2023-05-03T01:59:30;96657.06;;;6.74;81.94
31775;BME280;66189;49.000;11.640;2023-05-03T02:01:30;96662.91;;;6.76;81.62
31775;BME280;66189;49.000;11.640;2023-05-03T02:03:31;96664.47;;;6.77;81.38
31775;BME280;66189;49.000;11.640;2023-05-03T02:05:31;96664.78;;;6.75;81.17
31775;BME280;66189;49.000;11.640;2023-05-03T02:07:31;96661.97;;;6.81;81.35
31775;BME280;66189;49.000;11.640;2023-05-03T02:09:32;96664.78;;;6.75;81.18
31775;BME280;66189;49.000;11.640;2023-05-03T02:11:32;96658.81;;;6.70;81.17
31775;BME280;66189;49.000;11.640;2023-05-03T02:13:33;96664.31;;;6.73;81.31
31775;BME280;66189;49.000;11.640;2023-05-03T02:15:33;96663.38;;;6.78;81.22
31775;BME280;66189;49.000;11.640;2023-05-03T02:17:34;96670.28;;;6.70;81.01
31775;BME280;66189;49.000;11.640;2023-05-03T02:19:34;96666.84;;;6.70;81.18
31775;BME280;66189;49.000;11.640;2023-05-03T02:21:36;96664.94;;;6.70;80.96
31775;BME280;66189;49.000;11.640;2023-05-03T02:23:36;96672.19;;;6.70;81.18
31775;BME280;66189;49.000;11.640;2023-05-03T02:25:36;96668.09;;;6.64;81.31
31775;BME280;66189;49.000;11.640;2023-05-03T02:27:37;96672.31;;;6.65;81.57
31775;BME280;66189;49.000;11.640;2023-05-03T02:29:37;96675.81;;;6.65;81.09
31775;BME280;66189;49.000;11.640;2023-05-03T02:31:39;96675.50;;;6.67;80.86
31775;BME280;66189;49.000;11.640;2023-05-03T02:33:40;96670.78;;;6.64;81.09
31775;BME280;66189;49.000;11.640;2023-05-03T02:35:41;96668.53;;;6.57;81.14
31775;BME280;66189;49.000;11.640;2023-05-03T02:37:41;96664.44;;;6.51;80.94
31775;BME280;66189;49.000;11.640;2023-05-03T02:39:44;96666.81;;;6.52;80.74
31775;BME280;66189;49.000;11.640;2023-05-03T02:41:47;96669.66;;;6.56;80.91
31775;BME280;66189;49.000;11.640;2023-05-03T02:43:47;96664.13;;;6.52;80.89
31775;BME280;66189;49.000;11.640;2023-05-03T02:45:48;96669.47;;;6.44;80.97
31775;BME280;66189;49.000;11.640;2023-05-03T02:47:48;96667.59;;;6.44;80.83
31775;BME280;66189;49.000;11.640;2023-05-03T02:49:49;96662.56;;;6.43;80.85
31775;BME280;66189;49.000;11.640;2023-05-03T02:51:49;96663.50;;;6.38;80.97
31775;BME280;66189;49.000;11.640;2023-05-03T02:53:52;96658.78;;;6.44;80.93
31775;BME280;66189;49.000;11.640;2023-05-03T02:55:52;96655.31;;;6.34;80.87
31775;BME280;66189;49.000;11.640;2023-05-03T02:57:52;96658.91;;;6.30;80.90
31775;BME280;66189;49.000;11.640;2023-05-03T02:59:54;96650.59;;;6.31;81.29
31775;BME280;66189;49.000;11.640;2023-05-03T03:01:54;96648.84;;;6.27;81.25
31775;BME280;66189;49.000;11.640;2023-05-03T03:03:55;96651.38;;;6.23;81.20
31775;BME280;66189;49.000;11.640;2023-05-03T03:05:55;96657.34;;;6.20;81.32
31775;BME280;66189;49.000;11.640;2023-05-03T03:07:56;96652.47;;;6.22;80.88
31775;BME280;66189;49.000;11.640;2023-05-03T03:09:57;96660.78;;;6.20;80.70
31775;BME280;66189;49.000;11.640;2023-05-03T03:11:59;96667.38;;;6.14;80.91
31775;BME280;66189;49.000;11.640;2023-05-03T03:14:02;96670.06;;;6.23;80.91
31775;BME280;66189;49.000;11.640;2023-05-03T03:16:02;96672.72;;;6.14;81.10
31775;BME280;66189;49.000;11.640;2023-05-03T03:18:02;96671.44;;;6.12;80.83
31775;BME280;66189;49.000;11.640;2023-05-03T03:20:06;96669.88;;;6.11;81.37
31775;BME280;66189;49.000;11.640;2023-05-03T03:22:12;96669.72;;;6.16;81.04
31775;BME280;66189;49.000;11.640;2023-05-03T03:24:12;96675.38;;;6.14;80.71
31775;BME280;66189;49.000;11.640;2023-05-03T03:26:13;96675.69;;;6.13;80.69
31775;BME280;66189;49.000;11.640;2023-05-03T03:28:14;96672.25;;;6.12;80.57
31775;BME280;66189;49.000;11.640;2023-05-03T03:30:14;96674.75;;;6.17;80.37
31775;BME280;66189;49.000;11.640;2023-05-03T03:32:28;96676.63;;;6.08;80.64
31775;BME280;66189;49.000;11.640;2023-05-03T03:34:29;96683.22;;;6.02;80.80
31775;BME280;66189;49.000;11.640;2023-05-03T03:36:30;96684.63;;;6.08;80.14
31775;BME280;66189;49.000;11.640;2023-05-03T03:38:30;96687.47;;;6.03;80.79
31775;BME280;66189;49.000;11.640;2023-05-03T03:40:36;96681.59;;;5.92;80.69
31775;BME280;66189;49.000;11.640;2023-05-03T03:42:36;96675.59;;;5.86;81.37
31775;BME280;66189;49.000;11.640;2023-05-03T03:44:38;96684.22;;;5.83;81.06
31775;BME280;66189;49.000;11.640;2023-05-03T03:46:39;96679.81;;;5.87;80.46
31775;BME280;66189;49.000;11.640;2023-05-03T03:48:40;96683.72;;;5.81;81.62
31775;BME280;66189;49.000;11.640;2023-05-03T03:50:40;96679.31;;;5.77;81.40
31775;BME280;66189;49.000;11.640;2023-05-03T03:52:40;96683.09;;;5.76;82.01
31775;BME280;66189;49.000;11.640;2023-05-03T03:54:41;96688.44;;;5.76;81.87
31775;BME280;66189;49.000;11.640;2023-05-03T03:56:42;96685.44;;;5.77;81.70
31775;BME280;66189;49.000;11.640;2023-05-03T03:58:43;96683.56;;;5.78;81.52
31775;BME280;66189;49.000;11.640;2023-05-03T04:00:45;96690.59;;;5.74;81.58
31775;BME280;66189;49.000;11.640;2023-05-03T04:02:49;96686.06;;;5.74;81.39
31775;BME280;66189;49.000;11.640;2023-05-03T04:04:51;96695.31;;;5.68;81.54
31775;BME280;66189;49.000;11.640;2023-05-03T04:06:52;96690.44;;;5.70;81.45
31775;BME280;66189;49.000;11.640;2023-05-03T04:08:54;96690.88;;;5.63;81.93
31775;BME280;66189;49.000;11.640;2023-05-03T04:10:54;96694.94;;;5.61;82.43
31775;BME280;66189;49.000;11.640;2023-05-03T04:12:55;96698.69;;;5.60;81.47
31775;BME280;66189;49.000;11.640;2023-05-03T04:14:56;96694.75;;;5.57;81.60
31775;BME280;66189;49.000;11.640;2023-05-03T04:16:56;96692.91;;;5.58;82.42
31775;BME280;66189;49.000;11.640;2023-05-03T04:18:56;96708.09;;;5.57;82.11
31775;BME280;66189;49.000;11.640;2023-05-03T04:20:57;96701.81;;;5.53;82.28
31775;BME280;66189;49.000;11.640;2023-05-03T04:22:57;96712.19;;;5.55;82.20
31775;BME280;66189;49.000;11.640;2023-05-03T04:25:01;96708.72;;;5.54;82.06
31775;BME280;66189;49.000;11.640;2023-05-03T04:27:03;96713.44;;;5.57;82.25
31775;BME280;66189;49.000;11.640;2023-05-03T04:29:04;96710.34;;;5.64;82.18
31775;BME280;66189;49.000;11.640;2023-05-03T04:31:06;96712.16;;;5.77;82.72
31775;BME280;66189;49.000;11.640;2023-05-03T04:33:08;96706.50;;;5.87;82.86
31775;BME280;66189;49.000;11.640;2023-05-03T04:35:10;96712.75;;;5.97;82.98
31775;BME280;66189;49.000;11.640;2023-05-03T04:37:13;96705.97;;;5.99;82.30
31775;BME280;66189;49.000;11.640;2023-05-03T04:39:14;96719.91;;;6.28;84.25
31775;BME280;66189;49.000;11.640;2023-05-03T04:41:15;96716.66;;;6.39;83.65
31775;BME280;66189;49.000;11.640;2023-05-03T04:43:17;96719.16;;;6.45;82.38
31775;BME280;66189;49.000;11.640;2023-05-03T04:45:20;96722.16;;;6.43;82.45
31775;BME280;66189;49.000;11.640;2023-05-03T04:47:21;96717.91;;;6.51;82.79
31775;BME280;66189;49.000;11.640;2023-05-03T04:49:21;96718.56;;;6.56;82.99
31775;BME280;66189;49.000;11.640;2023-05-03T04:51:22;96718.56;;;6.56;82.18
31775;BME280;66189;49.000;11.640;2023-05-03T04:53:25;96713.66;;;6.50;82.23
31775;BME280;66189;49.000;11.640;2023-05-03T04:55:37;96713.06;;;6.53;82.89
31775;BME280;66189;49.000;11.640;2023-05-03T04:57:38;96720.78;;;6.54;82.67
31775;BME280;66189;49.000;11.640;2023-05-03T04:59:40;96717.63;;;6.61;82.23
31775;BME280;66189;49.000;11.640;2023-05-03T05:01:41;96725.03;;;6.73;82.43
31775;BME280;66189;49.000;11.640;2023-05-03T05:03:42;96730.88;;;6.84;82.84
31775;BME280;66189;49.000;11.640;2023-05-03T05:05:49;96733.03;;;6.82;81.97
31775;BME280;66189;49.000;11.640;2023-05-03T05:07:51;96733.38;;;6.98;82.17
31775;BME280;66189;49.000;11.640;2023-05-03T05:09:53;96732.59;;;6.97;81.13
31775;BME280;66189;49.000;11.640;2023-05-03T05:11:53;96731.97;;;7.00;82.24
31775;BME280;66189;49.000;11.640;2023-05-03T05:13:55;96730.84;;;7.01;81.80
31775;BME280;66189;49.000;11.640;2023-05-03T05:15:55;96729.13;;;6.97;82.25
31775;BME280;66189;49.000;11.640;2023-05-03T05:17:56;96739.22;;;7.08;82.04
31775;BME280;66189;49.000;11.640;2023-05-03T05:19:56;96739.69;;;6.93;82.25
31775;BME280;66189;49.000;11.640;2023-05-03T05:21:56;96735.28;;;7.15;81.84
31775;BME280;66189;49.000;11.640;2023-05-03T05:24:01;96741.09;;;7.08;82.20
31775;BME280;66189;49.000;11.640;2023-05-03T05:26:02;96746.78;;;7.15;82.32
31775;BME280;66189;49.000;11.640;2023-05-03T05:28:05;96740.47;;;7.20;82.02
31775;BME280;66189;49.000;11.640;2023-05-03T05:30:06;96737.31;;;7.26;81.71
31775;BME280;66189;49.000;11.640;2023-05-03T05:32:07;96749.91;;;7.35;81.36
31775;BME280;66189;49.000;11.640;2023-05-03T05:34:07;96746.59;;;7.38;81.98
31775;BME280;66189;49.000;11.640;2023-05-03T05:36:09;96748.63;;;7.50;81.79
31775;BME280;66189;49.000;11.640;2023-05-03T05:38:10;96744.06;;;7.50;81.80
31775;BME280;66189;49.000;11.640;2023-05-03T05:40:11;96745.47;;;7.56;81.36
31775;BME280;66189;49.000;11.640;2023-05-03T05:42:25;96750.34;;;7.63;81.13
31775;BME280;66189;49.000;11.640;2023-05-03T05:44:26;96754.56;;;7.73;81.55
31775;BME280;66189;49.000;11.640;2023-05-03T05:46:26;96759.31;;;7.76;81.65
31775;BME280;66189;49.000;11.640;2023-05-03T05:48:28;96760.38;;;7.83;81.22
31775;BME280;66189;49.000;11.640;2023-05-03T05:50:28;96764.31;;;7.86;81.20
31775;BME280;66189;49.000;11.640;2023-05-03T05:52:34;96763.00;;;8.01;81.20
31775;BME280;66189;49.000;11.640;2023-05-03T05:54:35;96767.41;;;8.06;80.68
31775;BME280;66189;49.000;11.640;2023-05-03T05:56:37;96765.47;;;8.15;80.83
31775;BME280;66189;49.000;11.640;2023-05-03T05:58:38;96766.28;;;8.15;80.33
31775;BME280;66189;49.000;11.640;2023-05-03T06:00:38;96769.97;;;8.32;80.50
31775;BME280;66189;49.000;11.640;2023-05-03T06:02:39;96764.72;;;8.53;80.00
31775;BME280;66189;49.000;11.640;2023-05-03T06:04:40;96765.03;;;8.51;79.78
31775;BME280;66189;49.000;11.640;2023-05-03T06:06:40;96769.50;;;8.47;78.98
31775;BME280;66189;49.000;11.640;2023-05-03T06:08:40;96763.28;;;8.56;78.95
31775;BME280;66189;49.000;11.640;2023-05-03T06:10:41;96773.97;;;8.64;79.80
31775;BME280;66189;49.000;11.640;2023-05-03T06:12:41;96770.75;;;8.71;78.71
31775;BME280;66189;49.000;11.640;2023-05-03T06:14:47;96773.84;;;8.82;78.72
31775;BME280;66189;49.000;11.640;2023-05-03T06:16:47;96774.56;;;8.91;78.08
31775;BME280;66189;49.000;11.640;2023-05-03T06:18:48;96776.47;;;8.91;78.31
31775;BME280;66189;49.000;11.640;2023-05-03T06:20:49;96772.78;;;9.04;78.38
31775;BME280;66189;49.000;11.640;2023-05-03T06:22:50;96780.28;;;9.11;79.26
31775;BME280;66189;49.000;11.640;2023-05-03T06:24:51;96780.56;;;9.18;77.45
31775;BME280;66189;49.000;11.640;2023-05-03T06:26:53;96782.66;;;9.12;76.95
31775;BME280;66189;49.000;11.640;2023-05-03T06:28:54;96785.34;;;9.12;76.70
31775;BME280;66189;49.000;11.640;2023-05-03T06:30:54;96784.88;;;9.31;76.51
31775;BME280;66189;49.000;11.640;2023-05-03T06:32:55;96778.19;;;9.37;77.09
31775;BME280;66189;49.000;11.640;2023-05-03T06:34:55;96781.09;;;9.32;76.29
31775;BME280;66189;49.000;11.640;2023-05-03T06:36:58;96779.56;;;9.43;76.34
31775;BME280;66189;49.000;11.640;2023-05-03T06:38:58;96779.09;;;9.63;77.35
31775;BME280;66189;49.000;11.640;2023-05-03T06:41:00;96777.56;;;9.74;76.33
31775;BME280;66189;49.000;11.640;2023-05-03T06:43:00;96783.84;;;9.78;74.58
31775;BME280;66189;49.000;11.640;2023-05-03T06:45:10;96791.28;;;9.93;75.44
31775;BME280;66189;49.000;11.640;2023-05-03T06:47:11;96786.91;;;9.89;73.98
31775;BME280;66189;49.000;11.640;2023-05-03T06:49:12;96796.91;;;10.01;74.92
31775;BME280;66189;49.000;11.640;2023-05-03T06:51:12;96793.91;;;10.14;74.52
31775;BME280;66189;49.000;11.640;2023-05-03T06:53:12;96788.88;;;10.25;73.56
31775;BME280;66189;49.000;11.640;2023-05-03T06:55:12;96791.44;;;10.22;73.58
31775;BME280;66189;49.000;11.640;2023-05-03T06:57:13;96786.13;;;10.46;74.04
31775;BME280;66189;49.000;11.640;2023-05-03T06:59:13;96790.16;;;10.53;73.45
31775;BME280;66189;49.000;11.640;2023-05-03T07:01:13;96786.22;;;10.62;71.86
31775;BME280;66189;49.000;11.640;2023-05-03T07:03:14;96781.41;;;10.56;71.92
31775;BME280;66189;49.000;11.640;2023-05-03T07:05:14;96786.69;;;10.64;71.93
31775;BME280;66189;49.000;11.640;2023-05-03T07:07:15;96781.19;;;10.61;72.91
31775;BME280;66189;49.000;11.640;2023-05-03T07:09:15;96783.88;;;10.73;71.78
31775;BME280;66189;49.000;11.640;2023-05-03T07:11:16;96771.88;;;10.83;71.50
31775;BME280;66189;49.000;11.640;2023-05-03T07:13:17;96778.00;;;10.96;71.76
31775;BME280;66189;49.000;11.640;2023-05-03T07:15:17;96770.72;;;11.09;71.64
31775;BME280;66189;49.000;11.640;2023-05-03T07:17:17;96771.91;;;11.11;70.61
31775;BME280;66189;49.000;11.640;2023-05-03T07:19:18;96770.59;;;11.17;70.13
31775;BME280;66189;49.000;11.640;2023-05-03T07:21:18;96771.44;;;11.22;70.24
31775;BME280;66189;49.000;11.640;2023-05-03T07:23:18;96767.97;;;11.21;70.63
31775;BME280;66189;49.000;11.640;2023-05-03T07:25:18;96762.34;;;11.26;68.69
31775;BME280;66189;49.000;11.640;2023-05-03T07:27:19;96758.50;;;11.40;67.90
31775;BME280;66189;49.000;11.640;2023-05-03T07:29:20;96760.34;;;11.51;69.70
31775;BME280;66189;49.000;11.640;2023-05-03T07:31:20;96759.94;;;11.49;68.50
31775;BME280;66189;49.000;11.640;2023-05-03T07:33:22;96754.81;;;11.60;69.75
31775;BME280;66189;49.000;11.640;2023-05-03T07:35:22;96751.19;;;11.68;69.99
31775;BME280;66189;49.000;11.640;2023-05-03T07:37:22;96760.34;;;11.51;68.74
31775;BME280;66189;49.000;11.640;2023-05-03T07:39:24;96755.09;;;11.71;68.89
31775;BME280;66189;49.000;11.640;2023-05-03T07:41:24;96752.66;;;11.94;68.51
31775;BME280;66189;49.000;11.640;2023-05-03T07:43:25;96760.63;;;11.90;68.38
31775;BME280;66189;49.000;11.640;2023-05-03T07:45:26;96764.13;;;12.07;67.23
31775;BME280;66189;49.000;11.640;2023-05-03T07:47:26;96759.19;;;12.09;67.57
31775;BME280;66189;49.000;11.640;2023-05-03T07:49:27;96761.09;;;12.24;66.85
31775;BME280;66189;49.000;11.640;2023-05-03T07:51:27;96754.75;;;12.33;67.12
31775;BME280;66189;49.000;11.640;2023-05-03T07:53:28;96763.50;;;12.61;68.35
31775;BME280;66189;49.000;11.640;2023-05-03T07:55:28;96756.75;;;12.52;66.30
31775;BME280;66189;49.000;11.640;2023-05-03T07:57:30;96758.38;;;12.56;65.35
31775;BME280;66189;49.000;11.640;2023-05-03T07:59:30;96757.41;;;12.80;65.93
31775;BME280;66189;49.000;11.640;2023-05-03T08:01:31;96757.91;;;12.86;68.52
31775;BME280;66189;49.000;11.640;2023-05-03T08:03:31;96755.16;;;12.67;64.81
31775;BME280;66189;49.000;11.640;2023-05-03T08:05:31;96763.91;;;12.95;66.62
31775;BME280;66189;49.000;11.640;2023-05-03T08:07:34;96764.63;;;13.12;65.29
31775;BME280;66189;49.000;11.640;2023-05-03T08:09:34;96763.56;;;13.17;64.95
31775;BME280;66189;49.000;11.640;2023-05-03T08:11:35;96768.59;;;13.34;65.48
31775;BME280;66189;49.000;11.640;2023-05-03T08:13:36;96764.97;;;13.46;63.34
31775;BME280;66189;49.000;11.640;2023-05-03T08:15:36;96767.09;;;13.56;63.95
31775;BME280;66189;49.000;11.640;2023-05-03T08:17:43;96763.38;;;13.45;62.43
31775;BME280;66189;49.000;11.640;2023-05-03T08:19:44;96770.09;;;13.15;65.46
31775;BME280;66189;49.000;11.640;2023-05-03T08:21:44;96762.13;;;13.03;64.52
31775;BME280;66189;49.000;11.640;2023-05-03T08:23:46;96772.44;;;13.17;62.96
31775;BME280;66189;49.000;11.640;2023-05-03T08:25:49;96765.03;;;12.94;63.79
31775;BME280;66189;49.000;11.640;2023-05-03T08:27:49;96765.72;;;12.91;64.52
31775;BME280;66189;49.000;11.640;2023-05-03T08:29:49;96767.38;;;12.96;64.61
31775;BME280;66189;49.000;11.640;2023-05-03T08:31:49;96766.72;;;12.67;65.94
31775;BME280;66189;49.000;11.640;2023-05-03T08:33:50;96772.47;;;12.82;64.99
31775;BME280;66189;49.000;11.640;2023-05-03T08:35:50;96766.13;;;12.74;65.70
31775;BME280;66189;49.000;11.640;2023-05-03T08:37:51;96767.06;;;12.82;64.27
31775;BME280;66189;49.000;11.640;2023-05-03T08:39:52;96772.53;;;12.85;64.04
31775;BME280;66189;49.000;11.640;2023-05-03T08:41:52;96760.34;;;12.91;63.71
31775;BME280;66189;49.000;11.640;2023-05-03T08:43:53;96768.03;;;12.73;63.85
31775;BME280;66189;49.000;11.640;2023-05-03T08:45:54;96755.81;;;13.15;64.11
31775;BME280;66189;49.000;11.640;2023-05-03T08:47:54;96768.84;;;13.29;63.03
31775;BME280;66189;49.000;11.640;2023-05-03T08:49:55;96764.50;;;13.83;62.21
31775;BME280;66189;49.000;11.640;2023-05-03T08:51:56;96765.25;;;14.49;63.35
31775;BME280;66189;49.000;11.640;2023-05-03T08:53:56;96761.72;;;14.22;60.82
31775;BME280;66189;49.000;11.640;2023-05-03T08:55:57;96762.66;;;14.56;59.14
31775;BME280;66189;49.000;11.640;2023-05-03T08:57:58;96763.41;;;14.57;58.34
31775;BME280;66189;49.000;11.640;2023-05-03T08:59:59;96760.88;;;14.91;57.75
31775;BME280;66189;49.000;11.640;2023-05-03T09:02:00;96768.22;;;15.21;56.98
31775;BME280;66189;49.000;11.640;2023-05-03T09:04:01;96771.63;;;14.87;56.56
31775;BME280;66189;49.000;11.640;2023-05-03T09:06:03;96770.50;;;14.88;56.68
31775;BME280;66189;49.000;11.640;2023-05-03T09:08:17;96771.53;;;14.80;58.03
31775;BME280;66189;49.000;11.640;2023-05-03T09:10:22;96772.31;;;14.81;58.29
31775;BME280;66189;49.000;11.640;2023-05-03T09:12:32;96771.06;;;14.74;56.79
31775;BME280;66189;49.000;11.640;2023-05-03T09:14:43;96776.50;;;14.28;57.51
31775;BME280;66189;49.000;11.640;2023-05-03T09:16:44;96777.28;;;14.52;59.04
31775;BME280;66189;49.000;11.640;2023-05-03T09:18:54;96769.47;;;14.70;58.34
31775;BME280;66189;49.000;11.640;2023-05-03T09:20:55;96765.06;;;14.62;57.33
31775;BME280;66189;49.000;11.640;2023-05-03T09:22:55;96761.59;;;14.88;57.61
31775;BME280;66189;49.000;11.640;2023-05-03T09:24:56;96766.97;;;15.45;58.00
31775;BME280;66189;49.000;11.640;2023-05-03T09:26:57;96769.66;;;15.11;57.79
31775;BME280;66189;49.000;11.640;2023-05-03T09:28:58;96768.56;;;14.62;56.42
31775;BME280;66189;49.000;11.640;2023-05-03T09:31:03;96766.94;;;14.57;56.33
31775;BME280;66189;49.000;11.640;2023-05-03T09:33:04;96766.44;;;15.02;57.95
31775;BME280;66189;49.000;11.640;2023-05-03T09:35:08;96760.72;;;15.41;55.61
31775;BME280;66189;49.000;11.640;2023-05-03T09:37:09;96764.41;;;15.90;56.48
31775;BME280;66189;49.000;11.640;2023-05-03T09:39:16;96766.84;;;16.43;55.00
31775;BME280;66189;49.000;11.640;2023-05-03T09:41:27;96766.50;;;16.04;53.38
31775;BME280;66189;49.000;11.640;2023-05-03T09:43:28;96761.25;;;15.50;53.34
31775;BME280;66189;49.000;11.640;2023-05-03T09:45:28;96763.16;;;15.50;54.95
31775;BME280;66189;49.000;11.640;2023-05-03T09:47:28;96762.41;;;15.19;53.88
31775;BME280;66189;49.000;11.640;2023-05-03T09:49:32;96765.34;;;15.06;53.77
31775;BME280;66189;49.000;11.640;2023-05-03T09:51:32;96762.41;;;15.53;54.26
31775;BME280;66189;49.000;11.640;2023-05-03T09:53:33;96761.97;;;16.19;54.49
31775;BME280;66189;49.000;11.640;2023-05-03T09:55:37;96764.97;;;16.55;53.22
31775;BME280;66189;49.000;11.640;2023-05-03T09:57:38;96763.88;;;16.14;54.74
31775;BME280;66189;49.000;11.640;2023-05-03T09:59:38;96768.53;;;16.14;53.48
31775;BME280;66189;49.000;11.640;2023-05-03T10:01:38;96762.97;;;16.03;52.29
31775;BME280;66189;49.000;11.640;2023-05-03T10:03:40;96765.53;;;15.85;53.53
31775;BME280;66189;49.000;11.640;2023-05-03T10:05:47;96755.78;;;15.80;53.60
31775;BME280;66189;49.000;11.640;2023-05-03T10:07:49;96764.97;;;15.72;54.78
31775;BME280;66189;49.000;11.640;2023-05-03T10:09:50;96756.44;;;15.74;53.50
31775;BME280;66189;49.000;11.640;2023-05-03T10:11:51;96754.75;;;15.58;53.17
31775;BME280;66189;49.000;11.640;2023-05-03T10:13:53;96760.34;;;15.42;54.04
31775;BME280;66189;49.000;11.640;2023-05-03T10:15:57;96757.75;;;15.19;54.51
31775;BME280;66189;49.000;11.640;2023-05-03T10:18:00;96758.97;;;15.56;55.56
31775;BME280;66189;49.000;11.640;2023-05-03T10:22:07;96757.44;;;16.85;52.62
31775;BME280;66189;49.000;11.640;2023-05-03T10:26:12;96753.94;;;17.62;50.77
31775;BME280;66189;49.000;11.640;2023-05-03T10:28:12;96757.16;;;16.98;50.22
31775;BME280;66189;49.000;11.640;2023-05-03T10:32:34;96749.63;;;16.28;49.59
31775;BME280;66189;49.000;11.640;2023-05-03T10:34:35;96745.94;;;16.06;48.76
31775;BME280;66189;49.000;11.640;2023-05-03T10:36:40;96741.06;;;15.81;48.29
31775;BME280;66189;49.000;11.640;2023-05-03T10:38:42;96745.38;;;15.52;51.94
31775;BME280;66189;49.000;11.640;2023-05-03T10:40:43;96739.34;;;15.32;51.99
31775;BME280;66189;49.000;11.640;2023-05-03T10:44:52;96739.34;;;15.32;52.09
31775;BME280;66189;49.000;11.640;2023-05-03T10:46:52;96742.72;;;15.90;54.29
31775;BME280;66189;49.000;11.640;2023-05-03T10:51:31;96733.94;;;16.56;52.78
31775;BME280;66189;49.000;11.640;2023-05-03T10:53:37;96739.81;;;17.28;49.40
31775;BME280;66189;49.000;11.640;2023-05-03T10:55:37;96732.94;;;17.59;48.28
31775;BME280;66189;49.000;11.640;2023-05-03T10:57:38;96732.25;;;17.94;45.83
31775;BME280;66189;49.000;11.640;2023-05-03T10:59:46;96738.13;;;18.18;48.94
31775;BME280;66189;49.000;11.640;2023-05-03T11:01:48;96732.69;;;18.47;45.30